Las Vegas, Nevada
Traffic Map
Current Weather Conditions
Las Vegas, Nevada
Clear
Clear
82°
Feels Like: 82°
Wind Chill: 82° Ceiling: Unl
Heat Index: 82° Visibility: 10mi
Dew Point: 36° Wind: 8mph
Humidity: 19% Direction: 180° (S)
Pressure: 29.73in Gusts: 0mph
Raw Report DataKLAS 040956Z 18007KT 10SM CLR 28/02 A2973 RMK AO2 SLP037 T02780022
Traffic Incident Summary
Active as of:
Severity:
Category:
InformationThere was an issue retrieving the traffic information for this location. Please try a different location or try again shortly.
Advertisements
Track Severe Weather on mobile